Time;durP1;ratioP1;P1;durP2;ratioP2;P2;SDS_P1;SDS_P2;PMS_P1;PMS_P2;Temp;Humidity;BMP_temperature;BMP_pressure;BME280_temperature;BME280_humidity;BME280_pressure;Samples;Min_cycle;Max_cycle;Signal;HPM_P1;HPM_P2
2023/12/16 00:00:29;;;;;;;22.30;5.40;;;;;;;;;;5034130;28;20048;-62
2023/12/16 00:02:54;;;;;;;17.90;5.27;;;;;;;;;;5035771;28;20037;-62
2023/12/16 00:05:20;;;;;;;21.23;5.40;;;;;;;;;;5036315;28;20057;-64
2023/12/16 00:07:45;;;;;;;19.80;5.30;;;;;;;;;;5032187;28;20029;-64
2023/12/16 00:10:11;;;;;;;21.47;5.20;;;;;;;;;;5033816;28;20025;-64
2023/12/16 00:12:36;;;;;;;16.73;5.37;;;;;;;;;;5034985;28;20032;-64
2023/12/16 00:15:02;;;;;;;14.70;5.10;;;;;;;;;;5031277;28;20021;-64
2023/12/16 00:17:27;;;;;;;18.43;5.47;;;;;;;;;;5034878;28;20116;-65
2023/12/16 00:19:52;;;;;;;20.50;5.33;;;;;;;;;;5033004;28;20481;-64
2023/12/16 00:22:17;;;;;;;18.17;5.27;;;;;;;;;;5033817;28;20375;-64
2023/12/16 00:24:43;;;;;;;19.60;5.30;;;;;;;;;;5029989;28;20468;-65
2023/12/16 00:27:08;;;;;;;16.93;5.20;;;;;;;;;;5038192;28;20041;-65
2023/12/16 00:29:33;;;;;;;20.23;4.80;;;;;;;;;;5035274;28;20025;-64
2023/12/16 00:31:59;;;;;;;20.40;5.00;;;;;;;;;;5039739;28;20056;-65
2023/12/16 00:34:24;;;;;;;13.77;4.73;;;;;;;;;;5031468;28;20315;-64
2023/12/16 00:36:49;;;;;;;20.37;4.83;;;;;;;;;;5028295;28;20025;-64
2023/12/16 00:39:14;;;;;;;17.20;5.50;;;;;;;;;;5038245;28;20478;-65
2023/12/16 00:41:40;;;;;;;14.03;4.30;;;;;;;;;;5037787;28;20188;-65
2023/12/16 00:44:05;;;;;;;14.80;4.57;;;;;;;;;;5037615;28;20044;-64
2023/12/16 00:46:31;;;;;;;17.60;5.50;;;;;;;;;;5033685;28;20147;-64
2023/12/16 00:48:56;;;;;;;22.27;5.03;;;;;;;;;;5037379;28;20030;-66
2023/12/16 00:51:22;;;;;;;17.10;4.20;;;;;;;;;;5034459;28;20021;-65
2023/12/16 00:53:47;;;;;;;15.97;4.17;;;;;;;;;;5034689;28;20027;-63
2023/12/16 00:56:12;;;;;;;16.73;4.23;;;;;;;;;;5035544;28;20061;-63
2023/12/16 00:58:38;;;;;;;18.23;4.30;;;;;;;;;;5033637;28;20235;-61
2023/12/16 01:01:03;;;;;;;15.30;4.00;;;;;;;;;;5032864;28;20100;-63
2023/12/16 01:03:28;;;;;;;12.97;3.60;;;;;;;;;;5029460;28;20052;-62
2023/12/16 01:05:53;;;;;;;10.23;3.80;;;;;;;;;;5032053;28;20129;-61
2023/12/16 01:08:19;;;;;;;10.40;3.40;;;;;;;;;;5034518;28;20486;-61
2023/12/16 01:10:44;;;;;;;13.80;3.70;;;;;;;;;;5032547;28;20029;-61
2023/12/16 01:13:09;;;;;;;14.20;3.70;;;;;;;;;;5029980;28;20041;-60
2023/12/16 01:15:35;;;;;;;9.77;3.73;;;;;;;;;;5031827;28;20371;-62
2023/12/16 01:18:01;;;;;;;13.97;3.43;;;;;;;;;;5030439;28;20557;-62
2023/12/16 01:20:26;;;;;;;16.37;3.57;;;;;;;;;;5033882;28;20049;-62
2023/12/16 01:22:51;;;;;;;14.30;3.67;;;;;;;;;;5033936;28;20040;-62
2023/12/16 01:25:16;;;;;;;13.67;3.10;;;;;;;;;;5032483;28;20504;-62
2023/12/16 01:27:42;;;;;;;18.10;3.60;;;;;;;;;;5036139;28;20083;-61
2023/12/16 01:30:08;;;;;;;14.20;3.63;;;;;;;;;;5034783;28;20040;-63
2023/12/16 01:32:33;;;;;;;11.10;3.27;;;;;;;;;;5028573;28;20021;-61
2023/12/16 01:34:59;;;;;;;12.97;3.17;;;;;;;;;;5030242;28;20033;-62
2023/12/16 01:37:26;;;;;;;13.53;3.30;;;;;;;;;;5036642;28;20038;-63
2023/12/16 01:39:51;;;;;;;12.43;3.37;;;;;;;;;;5030355;28;20044;-62
2023/12/16 01:42:16;;;;;;;16.53;3.63;;;;;;;;;;5034762;28;20486;-61
2023/12/16 01:44:42;;;;;;;9.33;3.13;;;;;;;;;;5027700;28;20030;-62
2023/12/16 01:47:07;;;;;;;17.67;3.47;;;;;;;;;;5030268;28;20033;-62
2023/12/16 01:49:32;;;;;;;11.60;3.37;;;;;;;;;;5030246;28;20470;-61
2023/12/16 01:51:58;;;;;;;10.83;3.30;;;;;;;;;;5035896;28;20030;-62
2023/12/16 01:54:23;;;;;;;9.53;3.00;;;;;;;;;;5035562;28;20465;-62
2023/12/16 01:56:54;;;;;;;11.87;3.63;;;;;;;;;;5037674;28;20034;-62
2023/12/16 01:59:19;;;;;;;12.40;3.40;;;;;;;;;;5037144;28;20064;-61
2023/12/16 02:01:45;;;;;;;11.30;2.93;;;;;;;;;;5038142;28;20513;-62
2023/12/16 02:04:10;;;;;;;9.80;3.30;;;;;;;;;;5035744;28;20035;-65
2023/12/16 02:06:39;;;;;;;10.30;2.70;;;;;;;;;;5035419;28;20030;-64
2023/12/16 02:09:05;;;;;;;16.13;3.73;;;;;;;;;;5034927;28;20083;-64
2023/12/16 02:11:30;;;;;;;10.93;2.90;;;;;;;;;;5036114;28;20033;-65
2023/12/16 02:13:55;;;;;;;12.27;3.07;;;;;;;;;;5037219;28;20025;-64
2023/12/16 02:16:20;;;;;;;9.03;3.00;;;;;;;;;;5034590;28;20053;-64
2023/12/16 02:18:46;;;;;;;10.53;3.10;;;;;;;;;;5036091;28;20481;-64
2023/12/16 02:21:11;;;;;;;8.60;2.90;;;;;;;;;;5033293;28;20033;-64
2023/12/16 02:23:37;;;;;;;12.47;3.30;;;;;;;;;;5035351;28;20120;-64
2023/12/16 02:26:03;;;;;;;11.37;3.03;;;;;;;;;;5032767;28;20029;-64
2023/12/16 02:28:30;;;;;;;16.63;3.53;;;;;;;;;;5035955;28;20040;-64
2023/12/16 02:30:55;;;;;;;15.13;2.90;;;;;;;;;;5035170;28;20025;-63
2023/12/16 02:33:21;;;;;;;7.77;2.70;;;;;;;;;;5039300;28;20028;-64
2023/12/16 02:35:46;;;;;;;14.10;2.90;;;;;;;;;;5039588;28;20036;-64
2023/12/16 02:38:11;;;;;;;13.87;3.80;;;;;;;;;;5036716;28;20029;-64
2023/12/16 02:40:41;;;;;;;10.57;3.00;;;;;;;;;;5035623;28;20206;-64
2023/12/16 02:43:07;;;;;;;10.70;3.07;;;;;;;;;;5035811;28;20160;-64
2023/12/16 02:45:33;;;;;;;11.17;3.30;;;;;;;;;;5035194;28;20734;-64
2023/12/16 02:47:58;;;;;;;9.30;2.87;;;;;;;;;;5040261;28;20086;-64
2023/12/16 02:50:23;;;;;;;9.17;3.00;;;;;;;;;;5038264;28;20025;-64
2023/12/16 02:52:48;;;;;;;11.17;2.80;;;;;;;;;;5032278;28;20029;-65
2023/12/16 02:55:14;;;;;;;10.93;3.27;;;;;;;;;;5031158;28;20425;-64
2023/12/16 02:57:39;;;;;;;14.27;3.67;;;;;;;;;;5035008;28;20033;-64
2023/12/16 03:00:04;;;;;;;12.27;3.50;;;;;;;;;;5032638;28;20436;-64
2023/12/16 03:02:30;;;;;;;15.37;3.40;;;;;;;;;;5038864;28;20029;-64
2023/12/16 03:04:55;;;;;;;9.77;2.80;;;;;;;;;;5034345;28;20081;-64
2023/12/16 03:07:20;;;;;;;15.30;3.20;;;;;;;;;;5035596;28;20041;-64
2023/12/16 03:09:46;;;;;;;16.10;3.20;;;;;;;;;;5035806;28;20044;-64
2023/12/16 03:12:11;;;;;;;12.67;3.30;;;;;;;;;;5031618;28;20673;-64
2023/12/16 03:14:39;;;;;;;8.23;2.50;;;;;;;;;;5032365;28;20110;-64
2023/12/16 03:17:05;;;;;;;9.50;2.87;;;;;;;;;;5030865;28;20062;-64
2023/12/16 03:19:31;;;;;;;12.50;3.30;;;;;;;;;;5035859;28;20037;-63
2023/12/16 03:21:56;;;;;;;10.90;2.80;;;;;;;;;;5038498;28;20059;-64
2023/12/16 03:24:21;;;;;;;10.77;2.70;;;;;;;;;;5030376;28;20103;-64
2023/12/16 03:26:47;;;;;;;11.70;2.90;;;;;;;;;;5036415;28;20367;-64
2023/12/16 03:29:12;;;;;;;14.27;2.70;;;;;;;;;;5031665;28;20033;-64
2023/12/16 03:31:37;;;;;;;10.77;2.50;;;;;;;;;;5036507;28;20107;-64
2023/12/16 03:34:02;;;;;;;10.73;2.67;;;;;;;;;;5037504;28;20596;-63
2023/12/16 03:36:28;;;;;;;10.03;2.67;;;;;;;;;;5033367;28;20028;-64
2023/12/16 03:38:53;;;;;;;13.27;2.93;;;;;;;;;;5037276;28;20068;-64
2023/12/16 03:41:19;;;;;;;11.50;3.07;;;;;;;;;;5038769;28;20056;-64
2023/12/16 03:43:44;;;;;;;10.27;3.00;;;;;;;;;;5034001;28;20135;-64
2023/12/16 03:46:09;;;;;;;12.07;3.20;;;;;;;;;;5039313;28;20614;-64
2023/12/16 03:48:35;;;;;;;12.17;2.87;;;;;;;;;;5035680;28;20025;-64
2023/12/16 03:51:01;;;;;;;13.07;2.90;;;;;;;;;;5031994;28;20427;-64
2023/12/16 03:53:26;;;;;;;11.50;2.87;;;;;;;;;;5039212;28;20036;-64
2023/12/16 03:55:52;;;;;;;13.60;2.97;;;;;;;;;;5034403;28;20398;-64
2023/12/16 03:58:18;;;;;;;14.43;3.50;;;;;;;;;;5037711;28;20103;-64
2023/12/16 04:00:43;;;;;;;12.80;3.07;;;;;;;;;;5033686;28;20049;-64
2023/12/16 04:03:08;;;;;;;10.43;2.67;;;;;;;;;;5033846;28;20041;-64
2023/12/16 04:05:34;;;;;;;12.40;2.87;;;;;;;;;;5035711;28;20036;-64
2023/12/16 04:07:59;;;;;;;11.07;2.60;;;;;;;;;;5027695;28;20470;-64
2023/12/16 04:10:24;;;;;;;12.53;2.70;;;;;;;;;;5032545;28;20029;-64
2023/12/16 04:12:50;;;;;;;13.83;2.93;;;;;;;;;;5032234;28;20037;-64
2023/12/16 04:15:15;;;;;;;9.90;2.90;;;;;;;;;;5032811;28;20088;-65
2023/12/16 04:17:40;;;;;;;12.50;2.73;;;;;;;;;;5034783;28;20041;-64
2023/12/16 04:20:06;;;;;;;14.33;2.67;;;;;;;;;;5030910;28;20621;-64
2023/12/16 04:22:31;;;;;;;14.73;3.53;;;;;;;;;;5028355;28;20026;-64
2023/12/16 04:25:00;;;;;;;8.80;2.50;;;;;;;;;;5033288;28;20363;-61
2023/12/16 04:27:26;;;;;;;8.87;2.70;;;;;;;;;;5033515;28;20052;-62
2023/12/16 04:29:51;;;;;;;17.53;3.40;;;;;;;;;;5038302;28;20029;-62
2023/12/16 04:32:17;;;;;;;10.57;3.03;;;;;;;;;;5034025;28;20481;-62
2023/12/16 04:34:42;;;;;;;12.33;3.17;;;;;;;;;;5031950;28;20039;-62
2023/12/16 04:37:07;;;;;;;12.57;3.00;;;;;;;;;;5032197;28;20029;-61
2023/12/16 04:39:33;;;;;;;8.83;2.70;;;;;;;;;;5032730;28;20041;-61
2023/12/16 04:41:58;;;;;;;12.60;2.93;;;;;;;;;;5036474;28;20095;-62
2023/12/16 04:44:23;;;;;;;12.13;3.00;;;;;;;;;;5035572;28;20029;-62
2023/12/16 04:46:48;;;;;;;12.73;3.53;;;;;;;;;;5037701;28;20060;-61
2023/12/16 04:49:14;;;;;;;10.60;2.90;;;;;;;;;;5036777;28;20028;-62
2023/12/16 04:51:39;;;;;;;8.73;2.60;;;;;;;;;;5035326;28;20068;-60
2023/12/16 04:54:04;;;;;;;13.40;3.80;;;;;;;;;;5038680;28;20338;-61
2023/12/16 04:56:29;;;;;;;10.90;2.73;;;;;;;;;;5036454;28;20095;-61
2023/12/16 04:58:55;;;;;;;12.80;2.47;;;;;;;;;;5031163;28;20523;-61
2023/12/16 05:01:20;;;;;;;12.73;3.93;;;;;;;;;;5035656;28;20065;-61
2023/12/16 05:03:47;;;;;;;9.73;2.80;;;;;;;;;;5035519;28;20087;-62
2023/12/16 05:06:12;;;;;;;9.80;3.23;;;;;;;;;;5031749;28;20036;-62
2023/12/16 05:08:38;;;;;;;13.57;3.30;;;;;;;;;;5037640;28;20045;-61
2023/12/16 05:11:03;;;;;;;15.13;3.10;;;;;;;;;;5028832;28;20029;-61
2023/12/16 05:13:28;;;;;;;16.87;3.77;;;;;;;;;;5034461;28;20033;-62
2023/12/16 05:15:53;;;;;;;15.63;3.50;;;;;;;;;;5032242;28;20053;-62
2023/12/16 05:18:19;;;;;;;11.10;3.40;;;;;;;;;;5028102;28;20061;-63
2023/12/16 05:20:44;;;;;;;12.20;3.67;;;;;;;;;;5038705;28;20041;-61
2023/12/16 05:23:09;;;;;;;13.97;3.57;;;;;;;;;;5030989;28;20175;-62
2023/12/16 05:25:35;;;;;;;27.17;4.50;;;;;;;;;;5037121;28;20036;-62
2023/12/16 05:28:00;;;;;;;12.47;3.83;;;;;;;;;;5029652;28;20036;-60
2023/12/16 05:30:26;;;;;;;15.57;3.97;;;;;;;;;;5028153;28;20243;-62
2023/12/16 05:32:51;;;;;;;15.10;4.17;;;;;;;;;;5036574;28;20036;-62
2023/12/16 05:35:18;;;;;;;13.40;3.87;;;;;;;;;;5031671;28;20588;-61
2023/12/16 05:37:43;;;;;;;16.53;4.10;;;;;;;;;;5033835;28;20029;-61
2023/12/16 05:40:09;;;;;;;13.73;3.80;;;;;;;;;;5030715;28;20029;-61
2023/12/16 05:42:34;;;;;;;14.70;3.73;;;;;;;;;;5029395;28;20033;-62
2023/12/16 05:44:59;;;;;;;15.17;4.27;;;;;;;;;;5032272;28;20029;-62
2023/12/16 05:47:25;;;;;;;11.90;3.80;;;;;;;;;;5036416;28;20415;-61
2023/12/16 05:49:50;;;;;;;14.90;3.93;;;;;;;;;;5032451;28;20033;-62
2023/12/16 05:52:15;;;;;;;12.23;4.00;;;;;;;;;;5034885;28;20029;-63
2023/12/16 05:54:41;;;;;;;16.47;4.77;;;;;;;;;;5035824;28;20107;-61
2023/12/16 05:57:06;;;;;;;13.33;4.43;;;;;;;;;;5033872;28;20039;-62
2023/12/16 05:59:31;;;;;;;14.80;4.17;;;;;;;;;;5032261;28;20121;-61
2023/12/16 06:01:57;;;;;;;12.37;4.00;;;;;;;;;;5036294;28;20145;-62
2023/12/16 06:04:22;;;;;;;11.97;3.77;;;;;;;;;;5033568;28;20029;-61
2023/12/16 06:06:48;;;;;;;10.97;3.47;;;;;;;;;;5032532;28;20038;-62
2023/12/16 06:09:13;;;;;;;14.40;4.00;;;;;;;;;;5033375;28;20474;-61
2023/12/16 06:11:38;;;;;;;13.97;4.13;;;;;;;;;;5033971;28;20040;-61
2023/12/16 06:14:04;;;;;;;18.80;4.40;;;;;;;;;;5032911;28;20099;-61
2023/12/16 06:16:29;;;;;;;16.63;3.90;;;;;;;;;;5032339;28;20064;-61
2023/12/16 06:18:54;;;;;;;13.57;3.50;;;;;;;;;;5032163;28;20037;-62
2023/12/16 06:21:21;;;;;;;14.83;4.43;;;;;;;;;;5031125;28;20076;-62
2023/12/16 06:23:46;;;;;;;12.97;4.43;;;;;;;;;;5030907;28;20045;-62
2023/12/16 06:26:12;;;;;;;17.77;3.77;;;;;;;;;;5025554;28;20405;-62
2023/12/16 06:28:37;;;;;;;10.73;3.57;;;;;;;;;;5028424;28;20036;-61
2023/12/16 06:31:02;;;;;;;15.10;3.47;;;;;;;;;;5033427;28;20116;-62
2023/12/16 06:33:28;;;;;;;14.60;4.13;;;;;;;;;;5032657;28;20033;-61
2023/12/16 06:35:54;;;;;;;15.13;3.90;;;;;;;;;;5030426;28;20033;-61
2023/12/16 06:38:19;;;;;;;18.97;4.97;;;;;;;;;;5034220;28;20087;-62
2023/12/16 06:40:44;;;;;;;11.43;3.60;;;;;;;;;;5030693;28;20087;-62
2023/12/16 06:43:09;;;;;;;10.57;3.40;;;;;;;;;;5039293;28;20053;-61
2023/12/16 06:45:38;;;;;;;17.80;4.33;;;;;;;;;;5035448;28;20045;-62
2023/12/16 06:48:03;;;;;;;11.37;3.57;;;;;;;;;;5038033;28;20033;-63
2023/12/16 06:50:28;;;;;;;17.10;4.07;;;;;;;;;;5035099;28;20032;-62
2023/12/16 06:52:53;;;;;;;13.30;3.20;;;;;;;;;;5035886;28;20033;-61
2023/12/16 06:55:19;;;;;;;14.97;3.37;;;;;;;;;;5038978;28;20033;-62
2023/12/16 06:57:44;;;;;;;15.37;3.93;;;;;;;;;;5039424;28;20134;-62
2023/12/16 07:00:10;;;;;;;13.07;3.30;;;;;;;;;;5035843;28;20112;-62
2023/12/16 07:02:41;;;;;;;12.97;3.60;;;;;;;;;;5039050;28;20021;-62
2023/12/16 07:05:07;;;;;;;14.80;3.42;;;;;;;;;;5034770;28;20030;-61
2023/12/16 07:07:32;;;;;;;11.77;3.60;;;;;;;;;;5034673;28;20365;-62
2023/12/16 07:09:57;;;;;;;13.57;3.77;;;;;;;;;;5035569;28;20059;-62
2023/12/16 07:12:23;;;;;;;16.93;3.73;;;;;;;;;;5035017;28;20057;-62
2023/12/16 07:14:48;;;;;;;10.40;3.27;;;;;;;;;;5036183;28;20470;-63
2023/12/16 07:17:14;;;;;;;13.67;4.23;;;;;;;;;;5035885;28;20496;-61
2023/12/16 07:19:39;;;;;;;12.73;2.83;;;;;;;;;;5039941;28;20082;-62
2023/12/16 07:22:04;;;;;;;10.30;2.77;;;;;;;;;;5035323;28;20025;-62
2023/12/16 07:24:30;;;;;;;15.17;4.10;;;;;;;;;;5031521;28;20604;-61
2023/12/16 07:26:55;;;;;;;13.20;3.50;;;;;;;;;;5034742;28;20029;-62
2023/12/16 07:29:20;;;;;;;18.17;4.57;;;;;;;;;;5036451;28;20032;-62
2023/12/16 07:31:49;;;;;;;16.70;4.23;;;;;;;;;;5037992;28;20074;-62
2023/12/16 07:34:14;;;;;;;21.50;4.47;;;;;;;;;;5030823;28;20658;-62
2023/12/16 07:36:40;;;;;;;17.23;4.50;;;;;;;;;;5032335;28;20131;-62
2023/12/16 07:39:05;;;;;;;18.20;4.67;;;;;;;;;;5027062;28;20038;-62
2023/12/16 07:41:30;;;;;;;11.70;3.30;;;;;;;;;;5035614;28;20036;-63
2023/12/16 07:43:55;;;;;;;13.73;3.20;;;;;;;;;;5038074;28;20043;-62
2023/12/16 07:46:21;;;;;;;11.20;3.57;;;;;;;;;;5031844;28;20086;-62
2023/12/16 07:48:46;;;;;;;18.00;3.97;;;;;;;;;;5031820;28;20032;-62
2023/12/16 07:51:18;;;;;;;13.57;3.93;;;;;;;;;;5040319;28;20064;-62
2023/12/16 07:53:46;;;;;;;19.13;4.40;;;;;;;;;;5034807;28;20052;-62
2023/12/16 07:56:16;;;;;;;10.60;3.17;;;;;;;;;;5036270;28;20293;-64
2023/12/16 07:58:41;;;;;;;12.33;3.70;;;;;;;;;;5034640;28;20623;-65
2023/12/16 08:01:07;;;;;;;12.53;3.90;;;;;;;;;;5034615;28;20060;-65
2023/12/16 08:03:32;;;;;;;13.47;3.17;;;;;;;;;;5037832;28;20052;-64
2023/12/16 08:05:57;;;;;;;12.67;3.60;;;;;;;;;;5036092;28;20521;-63
2023/12/16 08:08:23;;;;;;;13.00;3.47;;;;;;;;;;5037289;28;20653;-64
2023/12/16 08:10:52;;;;;;;16.90;4.03;;;;;;;;;;5033941;28;20127;-64
2023/12/16 08:13:17;;;;;;;15.57;4.27;;;;;;;;;;5034251;28;20112;-64
2023/12/16 08:15:43;;;;;;;16.17;4.10;;;;;;;;;;5032087;28;20495;-64
2023/12/16 08:18:09;;;;;;;17.73;4.43;;;;;;;;;;5032039;28;20537;-64
2023/12/16 08:20:34;;;;;;;15.30;4.37;;;;;;;;;;5033271;28;20026;-64
2023/12/16 08:23:02;;;;;;;12.13;4.00;;;;;;;;;;5032643;28;20631;-63
2023/12/16 08:25:27;;;;;;;12.77;3.63;;;;;;;;;;5035287;28;20508;-64
2023/12/16 08:27:52;;;;;;;12.13;4.17;;;;;;;;;;5036349;28;20029;-63
2023/12/16 08:30:18;;;;;;;22.93;4.67;;;;;;;;;;5033986;28;20026;-63
2023/12/16 08:32:43;;;;;;;12.67;3.77;;;;;;;;;;5033531;28;20083;-64
2023/12/16 08:35:08;;;;;;;14.30;4.50;;;;;;;;;;5036439;28;20369;-63
2023/12/16 08:37:34;;;;;;;19.37;5.20;;;;;;;;;;5030011;28;20036;-63
2023/12/16 08:40:00;;;;;;;15.70;4.20;;;;;;;;;;5035324;28;20033;-63
2023/12/16 08:42:25;;;;;;;12.10;3.27;;;;;;;;;;5029733;28;20034;-64
2023/12/16 08:44:50;;;;;;;8.97;3.60;;;;;;;;;;5035148;28;20037;-63
2023/12/16 08:47:15;;;;;;;13.03;3.80;;;;;;;;;;5029553;28;20171;-63
2023/12/16 08:49:44;;;;;;;11.00;2.90;;;;;;;;;;5035632;28;20187;-65
2023/12/16 08:52:09;;;;;;;13.13;3.80;;;;;;;;;;5031623;28;20021;-63
2023/12/16 08:54:34;;;;;;;16.20;3.83;;;;;;;;;;5033334;28;20110;-64
2023/12/16 08:57:01;;;;;;;15.47;4.50;;;;;;;;;;5033164;28;20395;-63
2023/12/16 08:59:26;;;;;;;17.20;4.57;;;;;;;;;;5027890;28;20117;-63
2023/12/16 09:01:52;;;;;;;17.43;3.90;;;;;;;;;;5030294;28;20171;-63
2023/12/16 09:04:17;;;;;;;12.00;3.83;;;;;;;;;;5029939;28;20080;-64
2023/12/16 09:06:43;;;;;;;10.23;3.10;;;;;;;;;;5029611;28;20048;-64
2023/12/16 09:09:11;;;;;;;17.30;4.03;;;;;;;;;;5035274;28;20037;-64
2023/12/16 09:11:36;;;;;;;10.40;2.80;;;;;;;;;;5029527;28;20770;-65
2023/12/16 09:14:04;;;;;;;13.67;4.23;;;;;;;;;;5030081;28;20041;-64
2023/12/16 09:16:29;;;;;;;19.60;4.10;;;;;;;;;;5027079;28;20414;-64
2023/12/16 09:18:55;;;;;;;16.87;4.13;;;;;;;;;;5033497;28;20044;-63
2023/12/16 09:21:20;;;;;;;13.90;4.23;;;;;;;;;;5027760;28;20196;-63
2023/12/16 09:23:47;;;;;;;23.77;4.80;;;;;;;;;;5035299;28;20041;-64
2023/12/16 09:26:13;;;;;;;7.10;2.50;;;;;;;;;;5029452;28;20033;-64
2023/12/16 09:28:38;;;;;;;16.67;4.10;;;;;;;;;;5019808;28;20595;-63
2023/12/16 09:31:04;;;;;;;18.97;4.53;;;;;;;;;;5029990;28;20025;-63
2023/12/16 09:33:29;;;;;;;20.60;4.50;;;;;;;;;;5028527;28;20054;-63
2023/12/16 09:35:54;;;;;;;18.13;4.00;;;;;;;;;;5036526;28;20643;-63
2023/12/16 09:38:19;;;;;;;15.87;3.77;;;;;;;;;;5031200;28;20044;-64
2023/12/16 09:40:45;;;;;;;10.27;3.60;;;;;;;;;;5027866;28;20517;-64
2023/12/16 09:43:16;;;;;;;12.60;3.90;;;;;;;;;;5027779;28;20555;-64
2023/12/16 09:45:42;;;;;;;;;;;;;;;;;;5027819;28;20517;-64
2023/12/16 09:48:07;;;;;;;16.88;4.10;;;;;;;;;;5033306;28;19960;-64
2023/12/16 09:50:33;;;;;;;13.40;3.33;;;;;;;;;;5029015;28;20037;-64
2023/12/16 09:52:59;;;;;;;13.83;3.97;;;;;;;;;;5025204;28;20034;-64
2023/12/16 09:55:24;;;;;;;22.57;4.60;;;;;;;;;;5027694;28;20044;-64
2023/12/16 09:57:50;;;;;;;22.70;5.17;;;;;;;;;;5026544;28;20038;-63
2023/12/16 10:00:17;;;;;;;19.63;4.90;;;;;;;;;;5028828;28;20037;-63
2023/12/16 10:02:47;;;;;;;18.70;4.50;;;;;;;;;;5029022;28;20040;-64
2023/12/16 10:05:13;;;;;;;18.57;4.57;;;;;;;;;;5023949;28;20117;-64
2023/12/16 10:07:39;;;;;;;13.13;3.93;;;;;;;;;;5033329;28;20821;-63
2023/12/16 10:10:04;;;;;;;17.43;3.73;;;;;;;;;;5031891;28;20040;-63
2023/12/16 10:12:35;;;;;;;19.17;4.40;;;;;;;;;;5030153;28;20029;-64
2023/12/16 10:15:01;;;;;;;17.05;4.40;;;;;;;;;;5029702;28;20083;-64
2023/12/16 10:17:26;;;;;;;12.23;3.97;;;;;;;;;;5036982;28;20087;-62
2023/12/16 10:19:51;;;;;;;14.43;4.20;;;;;;;;;;5033605;28;20052;-63
2023/12/16 10:22:17;;;;;;;31.87;4.77;;;;;;;;;;5034346;28;20042;-62
2023/12/16 10:24:44;;;;;;;18.20;3.50;;;;;;;;;;5032179;28;20133;-62
2023/12/16 10:27:10;;;;;;;27.20;5.23;;;;;;;;;;5033589;28;20037;-62
2023/12/16 10:29:35;;;;;;;15.17;3.60;;;;;;;;;;5032418;28;20078;-62
2023/12/16 10:32:01;;;;;;;16.20;4.07;;;;;;;;;;5031600;28;20366;-62
2023/12/16 10:34:29;;;;;;;19.87;4.10;;;;;;;;;;5035257;28;20044;-63
2023/12/16 10:37:05;;;;;;;14.50;4.17;;;;;;;;;;5034590;28;20033;-63
2023/12/16 10:39:30;;;;;;;20.30;4.40;;;;;;;;;;5302893;22;20091;-62
2023/12/16 10:41:55;;;;;;;18.97;4.60;;;;;;;;;;5071365;28;20079;-62
2023/12/16 10:44:21;;;;;;;17.47;4.37;;;;;;;;;;5078137;28;20629;-63
2023/12/16 10:46:49;;;;;;;19.57;5.50;;;;;;;;;;5073854;28;20047;-63
2023/12/16 10:49:15;;;;;;;19.43;4.40;;;;;;;;;;5073338;28;20494;-63
2023/12/16 10:51:43;;;;;;;19.03;4.70;;;;;;;;;;5069964;28;20044;-63
2023/12/16 10:54:32;;;;;;;14.40;4.23;;;;;;;;;;5069589;28;20650;-63
2023/12/16 10:57:20;;;;;;;19.93;4.90;;;;;;;;;;5066624;28;20120;-62
2023/12/16 11:00:01;;;;;;;15.77;4.50;;;;;;;;;;5062654;28;20094;-63
2023/12/16 11:02:28;;;;;;;15.27;4.10;;;;;;;;;;5071978;28;20079;-63
2023/12/16 11:05:07;;;;;;;20.13;5.03;;;;;;;;;;5073567;28;20500;-63
2023/12/16 11:07:35;;;;;;;16.93;4.77;;;;;;;;;;5066364;28;20506;-63
2023/12/16 11:10:01;;;;;;;17.57;5.10;;;;;;;;;;5071295;28;20447;-64
2023/12/16 11:12:26;;;;;;;17.57;5.50;;;;;;;;;;5070067;28;20035;-63
2023/12/16 11:14:54;;;;;;;20.50;6.83;;;;;;;;;;5078601;28;20120;-63
2023/12/16 11:17:40;;;;;;;22.43;5.33;;;;;;;;;;5075955;28;20047;-63
2023/12/16 11:20:08;;;;;;;19.97;4.67;;;;;;;;;;5069129;28;20153;-63
2023/12/16 11:22:43;;;;;;;19.00;5.37;;;;;;;;;;5070028;28;20072;-63
2023/12/16 11:25:15;;;;;;;18.13;6.10;;;;;;;;;;5075242;28;20545;-63
2023/12/16 11:27:40;;;;;;;16.35;6.35;;;;;;;;;;5076872;28;20471;-63
2023/12/16 11:30:06;;;;;;;21.47;5.90;;;;;;;;;;5072430;28;20066;-63
2023/12/16 11:32:32;;;;;;;20.87;5.57;;;;;;;;;;5070683;28;20481;-62
2023/12/16 11:34:57;;;;;;;17.53;5.90;;;;;;;;;;5076385;28;20028;-63
2023/12/16 11:37:34;;;;;;;18.00;5.43;;;;;;;;;;5076000;28;20047;-63
2023/12/16 11:40:01;;;;;;;23.03;5.47;;;;;;;;;;5085729;28;20105;-63
2023/12/16 11:42:45;;;;;;;17.77;5.83;;;;;;;;;;5090857;28;20032;-63
2023/12/16 11:45:10;;;;;;;19.93;6.63;;;;;;;;;;5088103;28;20039;-63
2023/12/16 11:47:35;;;;;;;18.67;6.03;;;;;;;;;;5088802;28;20518;-63
2023/12/16 11:50:00;;;;;;;21.13;5.60;;;;;;;;;;5091000;28;20619;-63
2023/12/16 11:52:27;;;;;;;20.07;6.47;;;;;;;;;;5091270;28;20032;-64
2023/12/16 11:54:53;;;;;;;25.33;7.20;;;;;;;;;;5095650;28;20035;-63
2023/12/16 11:57:22;;;;;;;19.70;6.60;;;;;;;;;;5086533;28;20086;-63
2023/12/16 11:59:48;;;;;;;23.30;6.80;;;;;;;;;;5086041;28;20031;-62
2023/12/16 12:02:13;;;;;;;17.13;6.37;;;;;;;;;;5088897;28;20109;-63
2023/12/16 12:04:38;;;;;;;24.93;6.97;;;;;;;;;;5088784;28;20036;-62
2023/12/16 12:07:04;;;;;;;21.30;5.97;;;;;;;;;;5088447;28;20063;-63
2023/12/16 12:09:29;;;;;;;21.20;7.17;;;;;;;;;;5086282;28;20035;-63
2023/12/16 12:11:56;;;;;;;22.37;7.00;;;;;;;;;;5084083;28;20028;-63
2023/12/16 12:14:22;;;;;;;25.33;7.60;;;;;;;;;;5085271;28;20113;-62
2023/12/16 12:16:47;;;;;;;15.87;6.27;;;;;;;;;;5089524;28;20027;-64
2023/12/16 12:19:12;;;;;;;17.80;6.37;;;;;;;;;;5088248;28;20036;-62
2023/12/16 12:21:38;;;;;;;23.10;6.97;;;;;;;;;;5084689;28;20272;-63
2023/12/16 12:24:03;;;;;;;24.13;7.70;;;;;;;;;;5088038;28;20071;-63
2023/12/16 12:26:28;;;;;;;21.87;6.90;;;;;;;;;;5091875;28;20066;-63
2023/12/16 12:28:58;;;;;;;12.30;5.07;;;;;;;;;;5084777;28;20077;-62
2023/12/16 12:31:23;;;;;;;18.37;6.63;;;;;;;;;;5083589;28;20109;-61
2023/12/16 12:33:49;;;;;;;24.37;7.40;;;;;;;;;;5083591;28;20463;-63
2023/12/16 12:36:14;;;;;;;24.87;7.50;;;;;;;;;;5085577;28;20031;-62
2023/12/16 12:38:44;;;;;;;23.00;8.63;;;;;;;;;;5080925;28;20048;-63
2023/12/16 12:41:14;;;;;;;16.73;7.07;;;;;;;;;;5083807;28;20550;-62
2023/12/16 12:43:39;;;;;;;20.80;6.23;;;;;;;;;;5086862;28;20119;-62
2023/12/16 12:46:07;;;;;;;18.43;7.60;;;;;;;;;;5075463;28;20114;-62
2023/12/16 12:48:33;;;;;;;19.00;7.67;;;;;;;;;;5091973;28;20051;-63
2023/12/16 12:51:03;;;;;;;27.27;7.60;;;;;;;;;;5085183;28;20058;-63
2023/12/16 12:53:29;;;;;;;18.43;8.00;;;;;;;;;;5088556;28;20464;-62
2023/12/16 12:55:54;;;;;;;15.63;6.23;;;;;;;;;;5084335;28;20039;-62
2023/12/16 12:58:19;;;;;;;17.70;5.93;;;;;;;;;;5076819;28;20047;-64
2023/12/16 13:00:45;;;;;;;19.60;5.10;;;;;;;;;;5088747;28;20039;-65
2023/12/16 13:03:10;;;;;;;17.63;6.27;;;;;;;;;;5081800;28;20058;-64
2023/12/16 13:05:37;;;;;;;20.20;6.07;;;;;;;;;;5086737;28;20043;-64
2023/12/16 13:08:13;;;;;;;16.53;6.27;;;;;;;;;;5087628;28;20441;-65
2023/12/16 13:10:39;;;;;;;19.40;6.90;;;;;;;;;;5077813;28;20028;-64
2023/12/16 13:13:04;;;;;;;14.10;5.87;;;;;;;;;;5081429;28;20034;-64
2023/12/16 13:15:29;;;;;;;15.87;6.27;;;;;;;;;;5083376;28;20028;-64
2023/12/16 13:17:54;;;;;;;17.60;7.77;;;;;;;;;;5087959;28;20039;-64
2023/12/16 13:20:20;;;;;;;11.27;5.10;;;;;;;;;;5083212;28;20086;-64
2023/12/16 13:22:45;;;;;;;14.30;6.63;;;;;;;;;;5085582;28;20552;-65
2023/12/16 13:25:15;;;;;;;16.60;7.60;;;;;;;;;;5091361;28;20036;-64
2023/12/16 13:27:41;;;;;;;18.97;8.20;;;;;;;;;;5087341;28;20048;-64
2023/12/16 13:30:07;;;;;;;18.57;7.87;;;;;;;;;;5087973;28;20060;-66
2023/12/16 13:32:34;;;;;;;15.00;7.10;;;;;;;;;;5087944;28;20474;-66
2023/12/16 13:34:59;;;;;;;19.40;7.43;;;;;;;;;;5096169;28;20123;-64
2023/12/16 13:37:24;;;;;;;21.57;9.50;;;;;;;;;;5088467;28;20436;-64
2023/12/16 13:39:49;;;;;;;27.43;10.03;;;;;;;;;;5087467;28;20108;-64
2023/12/16 13:42:15;;;;;;;23.00;8.93;;;;;;;;;;5093094;28;20372;-65
2023/12/16 13:44:40;;;;;;;23.90;8.00;;;;;;;;;;5093671;28;20187;-64
2023/12/16 13:47:05;;;;;;;19.07;7.77;;;;;;;;;;5086364;28;20040;-64
2023/12/16 13:49:31;;;;;;;21.30;9.50;;;;;;;;;;5088165;28;20028;-65
2023/12/16 13:51:56;;;;;;;27.40;9.23;;;;;;;;;;5090560;28;20028;-65
2023/12/16 13:54:21;;;;;;;21.17;8.33;;;;;;;;;;5091882;28;20060;-65
2023/12/16 13:56:47;;;;;;;24.77;9.33;;;;;;;;;;5092708;28;20510;-65
2023/12/16 13:59:12;;;;;;;31.77;10.87;;;;;;;;;;5095804;28;20082;-65
2023/12/16 14:01:38;;;;;;;18.97;9.47;;;;;;;;;;5091435;28;20039;-65
2023/12/16 14:04:03;;;;;;;28.70;10.40;;;;;;;;;;5093617;28;20450;-64
2023/12/16 14:06:28;;;;;;;23.37;10.43;;;;;;;;;;5090517;28;20040;-64
2023/12/16 14:08:54;;;;;;;24.60;10.80;;;;;;;;;;5096438;28;20379;-62
2023/12/16 14:11:19;;;;;;;26.80;11.53;;;;;;;;;;5097199;28;20020;-63
2023/12/16 14:13:44;;;;;;;33.77;12.13;;;;;;;;;;5095032;28;20398;-63
2023/12/16 14:16:10;;;;;;;27.63;11.03;;;;;;;;;;5093483;28;20039;-63
2023/12/16 14:18:35;;;;;;;23.70;10.33;;;;;;;;;;5095690;28;20036;-65
2023/12/16 14:21:00;;;;;;;25.30;11.47;;;;;;;;;;5095169;28;20031;-64
2023/12/16 14:23:25;;;;;;;22.77;8.70;;;;;;;;;;5095903;28;20032;-62